Time;durP1;ratioP1;P1;durP2;ratioP2;P2;SDS_P1;SDS_P2;PMS_P1;PMS_P2;Temp;Humidity;BMP_temperature;BMP_pressure;BME280_temperature;BME280_humidity;BME280_pressure;Samples;Min_cycle;Max_cycle;Signal;HPM_P1;HPM_P2
2022/08/13 00:00:04;;;;;;;;;;;;;;;19.16;100.00;101435.34;5046555;28;20027;-72
2022/08/13 00:02:39;;;;;;;;;;;;;;;19.27;100.00;101429.38;5039506;28;19913;-72
2022/08/13 00:05:05;;;;;;;;;;;;;;;19.26;100.00;101410.63;5046561;28;20263;-72
2022/08/13 00:07:31;;;;;;;;;;;;;;;19.21;100.00;101411.22;5029136;28;19920;-72
2022/08/13 00:09:58;;;;;;;;;;;;;;;19.15;100.00;101420.13;5046875;28;19959;-71
2022/08/13 00:15:20;;;;;;;;;;;;;;;19.01;100.00;101432.81;5028734;28;19999;-71
2022/08/13 00:17:49;;;;;;;;;;;;;;;18.93;100.00;101404.03;5046582;28;19923;-71
2022/08/13 00:20:14;;;;;;;;;;;;;;;18.87;100.00;101437.31;5046388;28;20380;-72
2022/08/13 00:22:39;;;;;;;;;;;;;;;18.82;100.00;101456.00;5041785;28;19917;-72
2022/08/13 00:25:06;;;;;;;;;;;;;;;18.77;100.00;101458.47;5022347;28;19916;-72
2022/08/13 00:27:31;;;;;;;;;;;;;;;18.60;100.00;101482.28;5046577;28;19917;-72
2022/08/13 00:29:56;;;;;;;;;;;;;;;18.54;100.00;101486.63;5046098;28;19915;-72
2022/08/13 00:32:29;;;;;;;;;;;;;;;18.51;100.00;101484.28;5046410;28;19913;-72
2022/08/13 00:34:55;;;;;;;;;;;;;;;18.50;100.00;101482.63;5046460;28;19939;-72
2022/08/13 00:37:22;;;;;;;;;;;;;;;18.43;100.00;101484.44;5046180;28;19912;-72
2022/08/13 00:39:47;;;;;;;;;;;;;;;18.44;100.00;101482.56;5046075;28;20058;-72
2022/08/13 00:42:13;;;;;;;;;;;;;;;18.42;100.00;101466.53;5046236;28;20027;-72
2022/08/13 00:44:39;;;;;;;;;;;;;;;18.47;100.00;101456.00;5028419;28;19943;-72
2022/08/13 00:49:48;;;;;;;;;;;;;;;18.52;100.00;101402.16;5040234;28;19916;-72
2022/08/13 00:52:14;;;;;;;;;;;;;;;18.45;100.00;101406.69;5028211;28;19935;-72
2022/08/13 00:54:42;;;;;;;;;;;;;;;18.51;100.00;101367.19;5028229;28;19912;-72
2022/08/13 00:57:12;;;;;;;;;;;;;;;18.47;100.00;101347.84;5028031;28;19908;-72
2022/08/13 00:59:37;;;;;;;;;;;;;;;18.47;100.00;101326.22;5045581;28;19913;-72
2022/08/13 01:02:04;;;;;;;;;;;;;;;18.69;100.00;101277.41;5045845;28;19974;-72
2022/08/13 01:04:30;;;;;;;;;;;;;;;18.52;100.00;101287.75;5027827;28;20274;-72
2022/08/13 01:06:56;;;;;;;;;;;;;;;18.51;100.00;101305.00;5045755;28;19913;-72
2022/08/13 01:09:21;;;;;;;;;;;;;;;18.48;100.00;101319.75;5045383;28;19924;-72
2022/08/13 01:11:47;;;;;;;;;;;;;;;18.26;100.00;101358.72;5027707;28;19908;-73
2022/08/13 01:14:13;;;;;;;;;;;;;;;18.22;100.00;101384.50;5027669;28;20745;-72
2022/08/13 01:16:38;;;;;;;;;;;;;;;18.09;100.00;101404.97;5028227;28;19912;-72
2022/08/13 01:19:06;;;;;;;;;;;;;;;17.97;100.00;101430.84;5037160;28;20505;-72
2022/08/13 01:21:39;;;;;;;;;;;;;;;17.84;100.00;101464.00;5020471;28;19952;-73
2022/08/13 01:24:06;;;;;;;;;;;;;;;17.83;100.00;101453.38;5045665;28;19916;-72
2022/08/13 01:26:32;;;;;;;;;;;;;;;17.82;100.00;101465.22;5034292;28;20051;-72
2022/08/13 01:28:58;;;;;;;;;;;;;;;17.81;100.00;101431.13;5016390;28;19913;-72
2022/08/13 01:31:24;;;;;;;;;;;;;;;17.71;100.00;101453.00;5044430;28;19922;-72
2022/08/13 01:33:59;;;;;;;;;;;;;;;17.63;100.00;101447.72;5027962;28;19912;-72
2022/08/13 01:36:36;;;;;;;;;;;;;;;17.47;100.00;101449.66;5044254;28;19916;-72
2022/08/13 01:39:05;;;;;;;;;;;;;;;17.44;100.00;101476.19;5045391;28;19935;-72
2022/08/13 01:41:31;;;;;;;;;;;;;;;17.34;100.00;101463.00;5037752;28;19912;-73
2022/08/13 01:44:04;;;;;;;;;;;;;;;17.30;100.00;101477.88;5045198;28;19953;-72
2022/08/13 01:50:29;;;;;;;;;;;;;;;17.22;100.00;101483.41;5020074;28;20270;-72
2022/08/13 01:52:04;;;;;;;;;;;;;;;17.07;100.00;101495.03;5045653;28;20840;-72
2022/08/13 01:54:30;;;;;;;;;;;;;;;17.08;100.00;101499.41;5016818;28;19913;-72
2022/08/13 01:56:57;;;;;;;;;;;;;;;17.07;100.00;101478.88;5025792;28;19921;-72
2022/08/13 01:59:22;;;;;;;;;;;;;;;17.03;100.00;101465.94;5025107;28;19909;-73
2022/08/13 02:01:48;;;;;;;;;;;;;;;16.95;100.00;101490.28;5026123;28;20020;-72
2022/08/13 02:04:13;;;;;;;;;;;;;;;16.83;100.00;101490.78;5025899;28;19960;-73
2022/08/13 02:06:39;;;;;;;;;;;;;;;16.79;100.00;101502.97;5025445;28;20298;-72
2022/08/13 02:09:05;;;;;;;;;;;;;;;16.76;100.00;101502.44;5041320;28;19908;-72
2022/08/13 02:11:32;;;;;;;;;;;;;;;16.68;100.00;101492.59;5044638;28;19919;-72
2022/08/13 02:13:59;;;;;;;;;;;;;;;16.66;100.00;101486.53;5044961;28;20194;-73
2022/08/13 02:16:28;;;;;;;;;;;;;;;16.62;100.00;101494.19;5045099;28;20027;-73
2022/08/13 02:18:53;;;;;;;;;;;;;;;16.60;100.00;101498.03;5045113;28;19912;-72
2022/08/13 02:21:22;;;;;;;;;;;;;;;16.52;100.00;101498.97;5044514;28;19917;-72
2022/08/13 02:23:56;;;;;;;;;;;;;;;16.44;100.00;101494.50;5027064;28;19913;-72
2022/08/13 02:26:23;;;;;;;;;;;;;;;16.40;100.00;101509.38;5030176;28;19921;-72
2022/08/13 02:28:50;;;;;;;;;;;;;;;16.34;100.00;101509.25;5031312;28;20244;-72
2022/08/13 02:31:17;;;;;;;;;;;;;;;16.28;100.00;101524.28;5040028;28;19920;-72
2022/08/13 02:33:43;;;;;;;;;;;;;;;16.24;100.00;101510.34;5049167;28;19912;-72
2022/08/13 02:36:10;;;;;;;;;;;;;;;16.29;100.00;101522.44;5030675;28;19966;-72
2022/08/13 02:38:36;;;;;;;;;;;;;;;16.23;100.00;101522.16;5048823;28;19916;-72
2022/08/13 02:44:00;;;;;;;;;;;;;;;16.17;100.00;101511.25;5000155;28;19932;-72
2022/08/13 02:46:26;;;;;;;;;;;;;;;16.12;100.00;101516.34;5046467;28;19919;-72
2022/08/13 02:48:52;;;;;;;;;;;;;;;16.09;100.00;101524.78;5046793;28;19913;-72
2022/08/13 02:51:18;;;;;;;;;;;;;;;16.00;100.00;101514.06;5028226;28;19951;-72
2022/08/13 02:53:43;;;;;;;;;;;;;;;15.96;100.00;101511.91;5046714;28;20377;-72
2022/08/13 02:56:09;;;;;;;;;;;;;;;15.93;100.00;101517.66;5047826;28;19916;-72
2022/08/13 02:58:36;;;;;;;;;;;;;;;15.85;100.00;101529.34;5048300;28;20182;-72
2022/08/13 03:01:02;;;;;;;;;;;;;;;15.82;100.00;101527.81;5047079;28;19908;-72
2022/08/13 03:03:28;;;;;;;;;;;;;;;15.80;100.00;101527.19;5030488;28;19923;-72
2022/08/13 03:05:53;;;;;;;;;;;;;;;15.78;100.00;101529.22;5047692;28;19946;-74
2022/08/13 03:08:19;;;;;;;;;;;;;;;15.77;100.00;101534.75;5047824;28;19917;-72
2022/08/13 03:10:45;;;;;;;;;;;;;;;15.75;100.00;101536.78;5047717;28;19913;-72
2022/08/13 03:13:11;;;;;;;;;;;;;;;15.81;100.00;101525.31;5022084;28;19913;-72
2022/08/13 03:15:38;;;;;;;;;;;;;;;15.81;100.00;101519.94;5030338;28;19913;-72
2022/08/13 03:18:03;;;;;;;;;;;;;;;15.81;100.00;101520.75;5048044;28;19920;-72
2022/08/13 03:20:28;;;;;;;;;;;;;;;15.79;100.00;101521.97;5047487;28;20390;-74
2022/08/13 03:22:55;;;;;;;;;;;;;;;15.78;100.00;101512.19;5048074;28;19925;-73
2022/08/13 03:25:22;;;;;;;;;;;;;;;15.75;100.00;101515.25;5029960;28;19995;-73
2022/08/13 03:27:50;;;;;;;;;;;;;;;15.74;100.00;101503.66;5029916;28;19917;-72
2022/08/13 03:30:16;;;;;;;;;;;;;;;15.72;100.00;101502.97;5047102;28;19959;-72
2022/08/13 03:32:43;;;;;;;;;;;;;;;15.70;100.00;101498.75;5047883;28;19920;-71
2022/08/13 03:35:10;;;;;;;;;;;;;;;15.67;100.00;101510.72;5029180;28;19916;-72
2022/08/13 03:37:36;;;;;;;;;;;;;;;15.64;100.00;101511.09;5047760;28;19920;-72
2022/08/13 03:40:02;;;;;;;;;;;;;;;15.60;100.00;101512.44;5029572;28;20250;-73
2022/08/13 03:42:27;;;;;;;;;;;;;;;15.48;100.00;101520.09;5047221;28;19916;-73
2022/08/13 03:44:54;;;;;;;;;;;;;;;15.44;100.00;101528.69;5047537;28;20471;-73
2022/08/13 03:47:19;;;;;;;;;;;;;;;15.45;100.00;101535.72;5047348;28;19928;-72
2022/08/13 03:49:46;;;;;;;;;;;;;;;15.36;100.00;101522.31;5028730;28;20277;-73
2022/08/13 03:52:13;;;;;;;;;;;;;;;15.33;100.00;101532.59;5047331;28;19982;-72
2022/08/13 03:54:38;;;;;;;;;;;;;;;15.27;100.00;101533.31;5029436;28;19909;-73
2022/08/13 03:57:04;;;;;;;;;;;;;;;15.26;100.00;101523.53;5047260;28;19921;-72
2022/08/13 03:59:31;;;;;;;;;;;;;;;15.32;100.00;101528.22;5029066;28;20292;-72
2022/08/13 04:02:01;;;;;;;;;;;;;;;15.32;100.00;101521.00;5029113;28;19913;-73
2022/08/13 04:04:29;;;;;;;;;;;;;;;15.33;100.00;101521.81;5029102;28;20407;-73
2022/08/13 04:06:54;;;;;;;;;;;;;;;15.33;100.00;101511.06;5047131;28;20352;-72
2022/08/13 04:09:20;;;;;;;;;;;;;;;15.28;100.00;101498.13;5028625;28;19913;-72
2022/08/13 04:11:46;;;;;;;;;;;;;;;15.32;100.00;101501.31;5028864;28;19920;-72
2022/08/13 04:14:11;;;;;;;;;;;;;;;15.31;100.00;101496.94;5029041;28;19920;-72
2022/08/13 04:16:37;;;;;;;;;;;;;;;15.29;100.00;101497.13;5041953;28;19908;-72
2022/08/13 04:19:02;;;;;;;;;;;;;;;15.22;100.00;101500.69;5023689;28;20042;-72
2022/08/13 04:21:31;;;;;;;;;;;;;;;15.27;100.00;101515.31;5043377;28;20062;-72
2022/08/13 04:23:57;;;;;;;;;;;;;;;15.28;100.00;101510.75;5046906;28;19975;-73
2022/08/13 04:26:23;;;;;;;;;;;;;;;15.34;100.00;101520.81;5046659;28;19912;-72
2022/08/13 04:28:50;;;;;;;;;;;;;;;15.34;100.00;101520.81;5046684;28;20335;-72
2022/08/13 04:31:16;;;;;;;;;;;;;;;15.38;100.00;101508.69;5046231;28;19912;-72
2022/08/13 04:33:42;;;;;;;;;;;;;;;15.34;100.00;101513.59;5028716;28;20294;-72
2022/08/13 04:36:07;;;;;;;;;;;;;;;15.41;100.00;101521.81;5028802;28;19966;-73
2022/08/13 04:38:34;;;;;;;;;;;;;;;15.41;100.00;101521.81;5046231;28;20615;-72
2022/08/13 04:40:59;;;;;;;;;;;;;;;15.58;100.00;101522.56;5028047;28;19920;-72
2022/08/13 04:43:24;;;;;;;;;;;;;;;15.61;100.00;101509.56;5046174;28;19921;-73
2022/08/13 04:45:49;;;;;;;;;;;;;;;15.68;100.00;101514.25;5046101;28;20353;-73
2022/08/13 04:48:15;;;;;;;;;;;;;;;15.74;100.00;101521.66;5045234;28;19917;-73
2022/08/13 04:50:42;;;;;;;;;;;;;;;15.80;100.00;101520.94;5045868;28;19908;-72
2022/08/13 04:53:09;;;;;;;;;;;;;;;15.87;100.00;101524.59;5046317;28;20334;-72
2022/08/13 04:55:35;;;;;;;;;;;;;;;15.96;100.00;101528.06;5027898;28;19969;-72
2022/08/13 04:58:01;;;;;;;;;;;;;;;16.14;100.00;101522.41;5045679;28;19917;-73
2022/08/13 05:00:32;;;;;;;;;;;;;;;16.50;100.00;101524.44;5045455;28;20343;-72
2022/08/13 05:03:05;;;;;;;;;;;;;;;17.07;100.00;101535.50;5046116;28;19913;-72
2022/08/13 05:05:31;;;;;;;;;;;;;;;17.18;100.00;101501.81;5055265;23;20270;-89
2022/08/13 05:07:57;;;;;;;;;;;;;;;17.24;100.00;101479.47;5036923;28;19920;-89
2022/08/13 05:10:22;;;;;;;;;;;;;;;17.52;100.00;101489.56;5024932;28;20463;-88
2022/08/13 05:12:47;;;;;;;;;;;;;;;17.84;100.00;101457.72;5041125;28;19951;-88
2022/08/13 05:15:13;;;;;;;;;;;;;;;18.62;100.00;101449.63;5040967;28;19924;-88
2022/08/13 05:17:43;;;;;;;;;;;;;;;19.75;100.00;101388.63;5023743;28;19908;-87
2022/08/13 05:20:13;;;;;;;;;;;;;;;20.87;100.00;101247.56;5023064;28;19912;-89
2022/08/13 05:22:38;;;;;;;;;;;;;;;21.88;100.00;101116.06;5020260;28;19936;-89
2022/08/13 05:25:14;;;;;;;;;;;;;;;22.58;100.00;101003.16;5038495;28;20428;-89
2022/08/13 05:27:40;;;;;;;;;;;;;;;23.34;90.33;100892.34;5024074;28;19916;-89
2022/08/13 05:30:06;;;;;;;;;;;;;;;23.90;84.46;100910.78;5023740;28;19999;-88
2022/08/13 05:32:31;;;;;;;;;;;;;;;24.79;74.52;100814.41;5040526;28;20011;-88
2022/08/13 05:34:59;;;;;;;;;;;;;;;24.66;69.32;100703.72;5032604;28;19908;-89
2022/08/13 05:37:24;;;;;;;;;;;;;;;25.27;67.82;100780.78;5056721;28;20335;-88
2022/08/13 05:39:50;;;;;;;;;;;;;;;25.44;67.19;100826.28;5040215;28;19962;-86
2022/08/13 05:42:21;;;;;;;;;;;;;;;26.07;63.04;100758.97;5022072;28;19924;-89
2022/08/13 05:44:47;;;;;;;;;;;;;;;26.52;61.21;100784.88;5020718;28;20362;-89
2022/08/13 05:47:14;;;;;;;;;;;;;;;26.39;59.76;100727.91;5022114;28;19913;-88
2022/08/13 05:49:39;;;;;;;;;;;;;;;26.58;60.04;100802.19;5036031;28;19917;-90
2022/08/13 05:52:04;;;;;;;;;;;;;;;27.02;57.90;100751.63;5029878;28;20352;-87
2022/08/13 05:54:31;;;;;;;;;;;;;;;27.44;56.74;100786.22;5021199;28;20050;-86
2022/08/13 05:56:57;;;;;;;;;;;;;;;27.55;54.81;100700.13;5037251;28;19924;-87
2022/08/13 06:04:52;;;;;;;;;;;;;;;27.68;52.88;100666.63;5041773;28;20365;-89
2022/08/13 06:07:19;;;;;;;;;;;;;;;26.98;52.05;100504.00;5024429;28;20590;-88
2022/08/13 06:09:45;;;;;;;;;;;;;;;27.42;53.46;100745.38;5047363;28;20315;-86
2022/08/13 06:12:11;;;;;;;;;;;;;;;26.66;52.81;100532.53;5051500;28;19916;-87
2022/08/13 06:14:36;;;;;;;;;;;;;;;25.96;54.23;100549.38;5028904;28;20539;-87
2022/08/13 06:17:02;;;;;;;;;;;;;;;25.93;55.14;100642.09;5060910;28;19957;-88
2022/08/13 06:19:29;;;;;;;;;;;;;;;26.73;53.46;100678.19;5024300;28;20690;-88
2022/08/13 06:22:02;;;;;;;;;;;;;;;27.44;53.30;100825.44;5024794;28;20204;-87
2022/08/13 06:24:28;;;;;;;;;;;;;;;27.04;51.53;100572.19;5033112;28;20007;-87
2022/08/13 06:26:54;;;;;;;;;;;;;;;27.99;51.99;100823.75;5026469;28;19921;-86
2022/08/13 06:29:20;;;;;;;;;;;;;;;28.24;51.61;100815.75;5025721;28;20331;-85
2022/08/13 06:31:47;;;;;;;;;;;;;;;28.10;49.90;100650.88;5042872;28;19959;-87
2022/08/13 06:34:13;;;;;;;;;;;;;;;28.89;49.04;100717.69;5027760;28;20701;-85
2022/08/13 06:36:39;;;;;;;;;;;;;;;28.44;49.02;100598.78;5030013;28;19931;-87
2022/08/13 06:39:05;;;;;;;;;;;;;;;28.59;49.61;100758.00;5030336;28;19920;-86
2022/08/13 06:41:31;;;;;;;;;;;;;;;29.10;49.68;100813.75;5029235;28;20279;-88
2022/08/13 06:43:57;;;;;;;;;;;;;;;29.57;49.29;100837.88;5061996;28;19935;-88
2022/08/13 06:46:24;;;;;;;;;;;;;;;29.95;47.50;100763.00;5044401;28;20717;-88
2022/08/13 06:48:50;;;;;;;;;;;;;;;30.14;48.39;100840.97;5028000;28;19912;-87
2022/08/13 06:51:23;;;;;;;;;;;;;;;30.31;46.76;100704.78;5035072;28;19913;-87
2022/08/13 06:53:48;;;;;;;;;;;;;;;29.78;48.16;100698.25;5035658;28;19913;-87
2022/08/13 06:56:18;;;;;;;;;;;;;;;29.67;50.18;100853.50;5026138;28;19916;-88
2022/08/13 06:58:49;;;;;;;;;;;;;;;29.83;50.16;100920.25;5024061;28;19917;-90
2022/08/13 07:01:23;;;;;;;;;;;;;;;29.68;49.34;100780.88;5024963;28;19998;-88
2022/08/13 07:03:50;;;;;;;;;;;;;;;30.09;49.40;100871.31;5026673;28;20138;-87
2022/08/13 07:06:17;;;;;;;;;;;;;;;29.40;50.69;100799.78;5043235;28;19921;-88
2022/08/13 07:08:42;;;;;;;;;;;;;;;29.05;50.82;100771.41;5026856;28;19912;-86
2022/08/13 07:11:23;;;;;;;;;;;;;;;29.42;50.82;100849.81;5041868;28;19915;-88
2022/08/13 07:13:50;;;;;;;;;;;;;;;29.45;49.68;100780.50;5021629;28;20403;-89
2022/08/13 07:16:16;;;;;;;;;;;;;;;29.44;48.97;100712.84;5042039;28;19912;-87
2022/08/13 07:18:46;;;;;;;;;;;;;;;29.62;49.81;100815.03;5023764;28;19980;-87
2022/08/13 07:21:13;;;;;;;;;;;;;;;29.91;47.90;100695.91;5023821;28;19968;-87
2022/08/13 07:23:39;;;;;;;;;;;;;;;29.78;48.49;100771.69;5026363;28;19952;-87
2022/08/13 07:26:05;;;;;;;;;;;;;;;30.18;48.19;100797.97;5018092;28;19920;-88
2022/08/13 07:28:31;;;;;;;;;;;;;;;29.57;48.04;100674.75;5043193;28;19909;-87
2022/08/13 07:30:56;;;;;;;;;;;;;;;29.66;48.13;100695.03;5026079;28;19924;-88
2022/08/13 07:33:22;;;;;;;;;;;;;;;29.96;47.97;100746.19;5041555;28;19915;-87
2022/08/13 07:35:47;;;;;;;;;;;;;;;30.12;46.83;100705.53;5022666;28;19912;-88
2022/08/13 07:38:13;;;;;;;;;;;;;;;29.69;47.67;100694.50;5040475;28;19963;-88
2022/08/13 07:40:39;;;;;;;;;;;;;;;30.32;46.64;100743.03;5026018;28;19913;-88
2022/08/13 07:43:06;;;;;;;;;;;;;;;29.78;47.73;100684.50;5042582;28;19944;-88
2022/08/13 07:45:32;;;;;;;;;;;;;;;30.14;47.39;100769.38;5022824;28;19937;-87
2022/08/13 07:47:58;;;;;;;;;;;;;;;30.48;46.91;100757.41;5022825;28;20416;-89
2022/08/13 07:50:24;;;;;;;;;;;;;;;30.55;46.88;100757.88;5047771;28;20282;-88
2022/08/13 07:52:55;;;;;;;;;;;;;;;30.18;46.88;100698.00;5023001;28;19909;-88
2022/08/13 07:55:25;;;;;;;;;;;;;;;30.39;44.95;100552.63;5024814;28;19913;-89
2022/08/13 07:57:51;;;;;;;;;;;;;;;30.04;46.49;100629.94;5042583;28;19912;-89
2022/08/13 08:00:25;;;;;;;;;;;;;;;29.93;46.82;100636.69;5031851;28;20284;-88
2022/08/13 08:03:01;;;;;;;;;;;;;;;30.24;47.06;100746.41;5026221;28;19919;-89
2022/08/13 08:05:27;;;;;;;;;;;;;;;29.92;46.32;100537.91;5022656;28;19920;-89
2022/08/13 08:07:53;;;;;;;;;;;;;;;30.44;46.27;100731.59;5029625;28;19912;-88
2022/08/13 08:10:20;;;;;;;;;;;;;;;30.53;45.59;100687.66;5031689;28;20396;-88
2022/08/13 08:12:45;;;;;;;;;;;;;;;30.40;46.06;100651.50;5028047;28;19916;-87
2022/08/13 08:15:11;;;;;;;;;;;;;;;30.74;45.65;100737.78;5050174;28;19912;-89
2022/08/13 08:17:37;;;;;;;;;;;;;;;30.64;45.81;100667.09;5041529;28;19912;-88
2022/08/13 08:20:02;;;;;;;;;;;;;;;30.95;45.04;100739.13;5065628;28;19913;-88
2022/08/13 08:22:29;;;;;;;;;;;;;;;30.78;45.29;100703.81;5037703;28;19913;-88
2022/08/13 08:24:54;;;;;;;;;;;;;;;30.01;44.70;100417.78;5045712;28;20453;-89
2022/08/13 08:27:19;;;;;;;;;;;;;;;30.91;45.41;100754.66;5048873;28;19991;-86
2022/08/13 08:29:46;;;;;;;;;;;;;;;30.79;46.14;100763.34;5041529;28;20383;-88
2022/08/13 08:32:12;;;;;;;;;;;;;;;31.31;44.98;100788.19;5041212;28;19909;-88
2022/08/13 08:34:39;;;;;;;;;;;;;;;31.37;43.82;100689.63;5041190;28;20008;-88
2022/08/13 08:37:04;;;;;;;;;;;;;;;31.65;43.72;100729.94;5057630;28;19909;-88
2022/08/13 08:45:00;;;;;;;;;;;;;;;31.29;42.52;100456.75;5038527;28;20315;-89
2022/08/13 08:47:29;;;;;;;;;;;;;;;31.91;42.34;100666.81;5024182;28;19970;-87
2022/08/13 08:49:56;;;;;;;;;;;;;;;32.24;42.35;100682.41;5024314;28;19912;-87
2022/08/13 08:53:19;;;;;;;;;;;;;;;33.08;41.20;100764.81;5021475;28;19908;-88
2022/08/13 08:55:09;;;;;;;;;;;;;;;33.11;39.92;100587.22;5037387;28;20420;-85
2022/08/13 08:57:36;;;;;;;;;;;;;;;32.99;39.68;100551.00;5023123;28;20290;-86
2022/08/13 09:00:02;;;;;;;;;;;;;;;32.99;39.96;100575.88;5022726;28;19936;-85
2022/08/13 09:02:29;;;;;;;;;;;;;;;32.98;39.00;100455.38;5028794;28;19909;-85
2022/08/13 09:04:54;;;;;;;;;;;;;;;32.92;39.46;100490.66;5043496;28;19920;-85
2022/08/13 09:07:22;;;;;;;;;;;;;;;33.80;38.57;100592.19;5058448;28;20520;-87
2022/08/13 09:09:54;;;;;;;;;;;;;;;33.79;38.11;100501.16;5047799;28;19991;-86
2022/08/13 09:12:25;;;;;;;;;;;;;;;32.69;37.08;100053.28;5022858;28;19917;-86
2022/08/13 09:14:50;;;;;;;;;;;;;;;33.17;37.83;100295.53;5024198;28;20007;-86
2022/08/13 09:17:18;;;;;;;;;;;;;;;32.89;38.71;100336.47;5038523;28;20015;-86
2022/08/13 09:19:44;;;;;;;;;;;;;;;31.23;39.04;99978.22;5020564;28;19912;-85
2022/08/13 09:22:14;;;;;;;;;;;;;;;31.35;39.47;100143.88;5025978;28;19909;-85
2022/08/13 09:24:40;;;;;;;;;;;;;;;30.62;40.69;100072.38;5020879;28;19986;-87
2022/08/13 09:27:06;;;;;;;;;;;;;;;30.79;39.11;99969.75;5025712;28;20293;-85
2022/08/13 09:29:32;;;;;;;;;;;;;;;31.02;39.40;100066.16;5023314;28;20008;-86
2022/08/13 09:31:58;;;;;;;;;;;;;;;30.97;39.48;100108.47;5054630;28;20734;-85
2022/08/13 09:34:27;;;;;;;;;;;;;;;30.91;38.80;99974.72;5040939;28;20526;-85
2022/08/13 09:36:56;;;;;;;;;;;;;;;31.59;37.69;100079.28;5022676;28;19935;-87
2022/08/13 09:39:29;;;;;;;;;;;;;;;31.07;36.15;99760.09;5036550;28;19964;-88
2022/08/13 09:41:56;;;;;;;;;;;;;;;31.90;36.33;99996.41;5068146;28;19919;-88
2022/08/13 09:44:26;;;;;;;;;;;;;;;31.22;36.64;99871.84;5046380;28;19909;-87
2022/08/13 09:46:52;;;;;;;;;;;;;;;32.65;35.40;100143.47;5022782;28;19916;-85
2022/08/13 09:49:18;;;;;;;;;;;;;;;31.98;36.26;99986.50;5054346;28;19978;-85
2022/08/13 09:51:50;;;;;;;;;;;;;;;32.34;36.18;100114.03;5021012;28;19920;-87
2022/08/13 09:54:18;;;;;;;;;;;;;;;32.84;36.12;100244.59;5022491;28;19921;-89
2022/08/13 09:56:44;;;;;;;;;;;;;;;31.32;36.43;99780.53;5040985;28;19920;-88
2022/08/13 09:59:10;;;;;;;;;;;;;;;32.59;35.99;100164.09;5044094;28;20372;-88
2022/08/13 10:01:36;;;;;;;;;;;;;;;33.50;34.49;100200.94;5026216;28;19913;-88
2022/08/13 10:04:01;;;;;;;;;;;;;;;33.34;35.31;100144.53;5039600;28;19921;-88
2022/08/13 10:06:28;;;;;;;;;;;;;;;33.85;35.07;100339.28;5037341;28;19959;-87
2022/08/13 10:08:59;;;;;;;;;;;;;;;34.20;34.61;100308.72;5027634;28;19999;-88
2022/08/13 10:11:24;;;;;;;;;;;;;;;31.59;37.11;99859.41;5040056;28;20326;-88
2022/08/13 10:13:49;;;;;;;;;;;;;;;32.56;36.11;100040.44;5040314;28;19909;-87
2022/08/13 10:16:15;;;;;;;;;;;;;;;31.59;35.61;99760.09;5049713;28;20102;-88
2022/08/13 10:18:41;;;;;;;;;;;;;;;32.30;36.46;100066.09;5051741;28;19916;-90
2022/08/13 10:21:07;;;;;;;;;;;;;;;32.55;35.27;100031.34;5038731;28;19935;-89
2022/08/13 10:23:33;;;;;;;;;;;;;;;33.01;33.54;99910.06;5033375;28;20012;-89
2022/08/13 10:26:00;;;;;;;;;;;;;;;32.62;33.85;99822.81;5024971;28;20412;-87
2022/08/13 10:28:33;;;;;;;;;;;;;;;32.55;33.29;99724.69;5023365;28;20426;-90
2022/08/13 10:30:59;;;;;;;;;;;;;;;32.98;33.89;99933.66;5031769;28;19983;-90
2022/08/13 10:33:24;;;;;;;;;;;;;;;32.80;32.54;99625.34;5021866;28;19959;-91
2022/08/13 10:35:55;;;;;;;;;;;;;;;33.14;33.01;99862.03;5038748;28;19913;-87
2022/08/13 10:38:25;;;;;;;;;;;;;;;33.28;31.66;99722.69;5027881;28;19913;-89
2022/08/13 10:40:50;;;;;;;;;;;;;;;32.93;32.21;99678.75;5020641;28;19965;-89
2022/08/13 10:43:16;;;;;;;;;;;;;;;32.84;32.77;99758.94;5022969;28;19955;-89
2022/08/13 10:45:45;;;;;;;;;;;;;;;33.75;31.67;99849.72;5026101;28;19986;-89
2022/08/13 10:48:11;;;;;;;;;;;;;;;32.91;31.98;99595.34;5061511;28;19920;-90
2022/08/13 10:50:37;;;;;;;;;;;;;;;32.97;32.92;99781.97;5052370;28;19912;-89
2022/08/13 10:53:03;;;;;;;;;;;;;;;32.30;32.75;99530.38;5027576;28;19912;-90
2022/08/13 10:55:29;;;;;;;;;;;;;;;33.22;32.11;99764.41;5047121;28;19908;-90
2022/08/13 10:57:54;;;;;;;;;;;;;;;34.41;31.02;99968.81;5049989;28;19917;-89
2022/08/13 11:00:19;;;;;;;;;;;;;;;34.78;30.91;99988.31;5048261;28;19916;-89
2022/08/13 11:02:48;;;;;;;;;;;;;;;34.53;30.92;99853.59;5023148;28;19924;-89
2022/08/13 11:05:13;;;;;;;;;;;;;;;34.64;30.69;99863.13;5023597;28;19915;-89
2022/08/13 11:07:39;;;;;;;;;;;;;;;34.31;30.59;99753.16;5039978;28;20000;-89
2022/08/13 11:10:06;;;;;;;;;;;;;;;32.73;32.07;99443.53;5039937;28;20502;-89
2022/08/13 11:12:33;;;;;;;;;;;;;;;33.80;32.01;99819.03;5027230;28;19912;-89
2022/08/13 11:14:59;;;;;;;;;;;;;;;32.41;33.10;99529.97;5027249;28;19956;-90
2022/08/13 11:17:24;;;;;;;;;;;;;;;32.68;32.90;99662.03;5018684;28;20481;-91
2022/08/13 11:19:50;;;;;;;;;;;;;;;33.11;33.08;99862.72;5027049;28;19909;-89
2022/08/13 11:22:16;;;;;;;;;;;;;;;33.63;32.33;99840.19;5051277;28;19923;-88
2022/08/13 11:24:41;;;;;;;;;;;;;;;33.16;33.21;99818.28;5027680;28;20020;-90
2022/08/13 11:27:07;;;;;;;;;;;;;;;34.43;31.90;100027.44;5051431;28;20011;-89
2022/08/13 11:29:32;;;;;;;;;;;;;;;34.06;32.40;99946.94;5054910;28;19916;-90
2022/08/13 11:31:57;;;;;;;;;;;;;;;33.13;32.43;99666.88;5059794;28;19913;-89
2022/08/13 11:34:25;;;;;;;;;;;;;;;33.61;31.88;99734.59;5044281;28;19916;-90
2022/08/13 11:36:51;;;;;;;;;;;;;;;32.54;33.93;99749.88;5051132;28;19924;-89
2022/08/13 11:39:16;;;;;;;;;;;;;;;31.92;34.10;99561.63;5027742;28;19913;-89
2022/08/13 11:41:41;;;;;;;;;;;;;;;33.36;34.12;100012.22;5071207;28;20697;-89
2022/08/13 11:44:07;;;;;;;;;;;;;;;33.15;33.80;99880.25;5064039;28;19919;-88
2022/08/13 11:46:32;;;;;;;;;;;;;;;33.38;33.00;99882.69;5024337;28;19913;-89
2022/08/13 11:48:57;;;;;;;;;;;;;;;34.35;31.93;99992.34;5047015;28;20009;-89
2022/08/13 11:51:22;;;;;;;;;;;;;;;34.43;32.10;100005.28;5023700;28;20373;-91
2022/08/13 11:53:48;;;;;;;;;;;;;;;34.33;31.54;99855.31;5023154;28;19959;-90
2022/08/13 11:56:22;;;;;;;;;;;;;;;33.93;31.19;99664.88;5025391;28;20193;-89
2022/08/13 11:58:47;;;;;;;;;;;;;;;33.36;31.54;99551.09;5028688;28;20016;-89
2022/08/13 12:01:16;;;;;;;;;;;;;;;34.58;30.59;99856.13;5065460;28;20452;-91
2022/08/13 12:03:41;;;;;;;;;;;;;;;34.84;30.94;99942.59;5042685;28;19990;-89
2022/08/13 12:06:07;;;;;;;;;;;;;;;34.59;31.65;99965.84;5025509;28;20470;-90
2022/08/13 12:08:32;;;;;;;;;;;;;;;33.53;32.78;99746.53;5039602;28;19967;-90
2022/08/13 12:10:58;;;;;;;;;;;;;;;33.25;32.70;99740.78;5022646;28;19919;-91
2022/08/13 12:13:32;;;;;;;;;;;;;;;33.46;32.59;99740.75;5025962;28;19943;-91
2022/08/13 12:15:57;;;;;;;;;;;;;;;34.46;31.15;99862.47;5025698;28;20766;-91
2022/08/13 12:18:23;;;;;;;;;;;;;;;34.97;30.84;99950.91;5060597;28;19917;-88
2022/08/13 12:20:48;;;;;;;;;;;;;;;34.23;31.54;99751.31;5045610;28;19920;-90
2022/08/13 12:23:13;;;;;;;;;;;;;;;33.18;33.39;99748.81;5040441;28;19959;-89
2022/08/13 12:25:39;;;;;;;;;;;;;;;33.81;33.05;99943.28;5026422;28;19958;-90
2022/08/13 12:28:07;;;;;;;;;;;;;;;33.10;33.50;99717.31;5042676;28;20320;-89
2022/08/13 12:30:33;;;;;;;;;;;;;;;32.29;34.09;99585.94;5019381;28;19913;-89
2022/08/13 12:32:58;;;;;;;;;;;;;;;32.45;33.44;99569.56;5028767;28;19916;-91
2022/08/13 12:35:23;;;;;;;;;;;;;;;32.13;34.41;99641.75;5043775;28;20328;-89
2022/08/13 12:37:48;;;;;;;;;;;;;;;31.62;35.53;99620.69;5050174;28;20332;-89
2022/08/13 12:40:14;;;;;;;;;;;;;;;31.05;35.89;99517.09;5040165;28;20007;-89
2022/08/13 12:42:39;;;;;;;;;;;;;;;32.20;34.43;99745.34;5025814;28;19955;-87
2022/08/13 12:45:05;;;;;;;;;;;;;;;33.44;33.35;99958.81;5025316;28;20289;-89
2022/08/13 12:47:30;;;;;;;;;;;;;;;31.84;34.17;99521.09;5070995;28;19958;-90
2022/08/13 12:49:55;;;;;;;;;;;;;;;31.53;33.75;99411.13;5063303;28;19923;-88
2022/08/13 12:52:21;;;;;;;;;;;;;;;32.37;33.37;99685.28;5052039;28;19892;-87
2022/08/13 12:54:46;;;;;;;;;;;;;;;32.26;34.18;99699.81;5042141;28;19916;-89